P2NTK KBNA-
Flight info
| Callsign | P2NTK |
|---|---|
| Flight time | N/A |
| Altitude | VFR |
| Route | |
| Aircraft | K100/L-VGD/C |
Departure
| Time | 2026-05-04 23:47 |
|---|---|
| Airport | Nashville International Airport (KBNA) |
Arrival
| Time | N/A |
|---|---|
| Airport | - |
| Time | Latitude | Longitude | Altitude | Speed | Heading |
|---|---|---|---|---|---|
| 2026-05-04 23:39 | 36.11841 | -86.67778 | 581 ft | 0 kts | 112° |
| 2026-05-04 23:42 | 36.11840 | -86.67777 | 581 ft | 1 kts | 119° |
| 2026-05-04 23:42 | 36.11835 | -86.67814 | 581 ft | 9 kts | 258° |
| 2026-05-04 23:42 | 36.11821 | -86.67886 | 581 ft | 11 kts | 281° |
| 2026-05-04 23:42 | 36.11894 | -86.67898 | 580 ft | 16 kts | 14° |
| 2026-05-04 23:43 | 36.12014 | -86.67850 | 579 ft | 20 kts | 20° |
| 2026-05-04 23:43 | 36.12120 | -86.67808 | 581 ft | 16 kts | 18° |
| 2026-05-04 23:43 | 36.12237 | -86.67758 | 582 ft | 18 kts | 18° |
| 2026-05-04 23:43 | 36.12347 | -86.67733 | 582 ft | 16 kts | 309° |
| 2026-05-04 23:44 | 36.12378 | -86.67838 | 580 ft | 0 kts | 288° |
| 2026-05-04 23:46 | 36.12401 | -86.67949 | 579 ft | 23 kts | 259° |
| 2026-05-04 23:46 | 36.12223 | -86.68042 | 576 ft | 54 kts | 197° |
| 2026-05-04 23:46 | 36.11642 | -86.68254 | 682 ft | 109 kts | 200° |
| 2026-05-04 23:47 | 36.10840 | -86.68585 | 896 ft | 132 kts | 201° |
| 2026-05-04 23:47 | 36.10002 | -86.69057 | 1186 ft | 135 kts | 219° |
| 2026-05-04 23:47 | 36.09376 | -86.69929 | 1554 ft | 131 kts | 229° |
| 2026-05-04 23:47 | 36.08826 | -86.70686 | 2355 ft | 109 kts | 224° |
| 2026-05-04 23:48 | 36.08268 | -86.71457 | 2478 ft | 138 kts | 230° |
| 2026-05-04 23:48 | 36.07669 | -86.72469 | 2435 ft | 152 kts | 234° |
| 2026-05-04 23:48 | 36.07133 | -86.73589 | 2424 ft | 147 kts | 239° |
| 2026-05-04 23:48 | 36.06659 | -86.74717 | 2396 ft | 146 kts | 240° |
| 2026-05-04 23:49 | 36.06229 | -86.75863 | 2411 ft | 148 kts | 243° |
| 2026-05-04 23:49 | 36.05868 | -86.77060 | 2419 ft | 149 kts | 247° |
| 2026-05-04 23:49 | 36.05565 | -86.78301 | 2412 ft | 152 kts | 252° |
| 2026-05-04 23:49 | 36.05336 | -86.79592 | 2406 ft | 155 kts | 255° |
| 2026-05-04 23:50 | 36.05130 | -86.80894 | 2407 ft | 153 kts | 257° |
| 2026-05-04 23:50 | 36.04933 | -86.82177 | 2395 ft | 155 kts | 253° |
| 2026-05-04 23:50 | 36.04751 | -86.83465 | 2406 ft | 150 kts | 254° |
| 2026-05-04 23:50 | 36.04580 | -86.84752 | 2408 ft | 152 kts | 255° |
| 2026-05-04 23:51 | 36.04417 | -86.86058 | 2397 ft | 155 kts | 256° |
| 2026-05-04 23:51 | 36.04115 | -86.87290 | 2397 ft | 145 kts | 231° |
| 2026-05-04 23:51 | 36.03428 | -86.88221 | 2384 ft | 147 kts | 225° |
| 2026-05-04 23:51 | 36.02747 | -86.89141 | 2406 ft | 146 kts | 226° |
| 2026-05-04 23:52 | 36.02179 | -86.89904 | 2418 ft | 145 kts | 226° |
| 2026-05-04 23:52 | 36.01782 | -86.90433 | 2386 ft | 146 kts | 226° |
| 2026-05-04 23:52 | 36.01133 | -86.91302 | 2404 ft | 144 kts | 225° |
| 2026-05-04 23:52 | 36.00443 | -86.92243 | 2402 ft | 148 kts | 226° |
| 2026-05-04 23:53 | 35.99744 | -86.93195 | 2397 ft | 150 kts | 225° |
| 2026-05-04 23:53 | 35.99048 | -86.94143 | 2383 ft | 146 kts | 226° |
| 2026-05-04 23:53 | 35.98325 | -86.95077 | 2462 ft | 154 kts | 226° |
| 2026-05-04 23:53 | 35.97551 | -86.96048 | 2461 ft | 161 kts | 226° |
| 2026-05-04 23:54 | 35.96763 | -86.97040 | 2469 ft | 163 kts | 226° |
| 2026-05-04 23:54 | 35.95966 | -86.98043 | 2467 ft | 164 kts | 226° |
| 2026-05-04 23:54 | 35.95438 | -86.98708 | 2465 ft | 164 kts | 226° |
| 2026-05-04 23:54 | 35.94641 | -86.99715 | 2468 ft | 164 kts | 226° |
| 2026-05-04 23:55 | 35.93841 | -87.00725 | 2469 ft | 165 kts | 226° |
| 2026-05-04 23:55 | 35.93039 | -87.01732 | 2472 ft | 164 kts | 226° |
| 2026-05-04 23:55 | 35.91443 | -87.03745 | 2468 ft | 164 kts | 226° |
| 2026-05-04 23:56 | 35.90641 | -87.04747 | 2468 ft | 164 kts | 226° |
| 2026-05-04 23:56 | 35.89844 | -87.05754 | 2468 ft | 164 kts | 226° |
| 2026-05-04 23:56 | 35.89046 | -87.06762 | 2468 ft | 164 kts | 226° |
| 2026-05-04 23:56 | 35.88238 | -87.07755 | 2468 ft | 164 kts | 223° |
| 2026-05-04 23:57 | 35.87375 | -87.08675 | 2468 ft | 164 kts | 221° |
| 2026-05-04 23:57 | 35.86508 | -87.09592 | 2467 ft | 164 kts | 221° |
| 2026-05-04 23:57 | 35.85644 | -87.10515 | 2466 ft | 164 kts | 221° |
| 2026-05-04 23:57 | 35.84776 | -87.11429 | 2461 ft | 164 kts | 221° |
| 2026-05-04 23:58 | 35.83908 | -87.12344 | 2462 ft | 164 kts | 221° |
| 2026-05-04 23:58 | 35.83036 | -87.13261 | 2459 ft | 165 kts | 221° |
| 2026-05-04 23:58 | 35.82173 | -87.14182 | 2460 ft | 164 kts | 221° |
| 2026-05-04 23:58 | 35.81303 | -87.15098 | 2463 ft | 164 kts | 221° |
| 2026-05-04 23:59 | 35.80436 | -87.16015 | 2462 ft | 164 kts | 221° |
| 2026-05-04 23:59 | 35.79570 | -87.16932 | 2460 ft | 164 kts | 221° |
| 2026-05-04 23:59 | 35.78706 | -87.17847 | 2459 ft | 164 kts | 221° |
| 2026-05-04 23:59 | 35.77840 | -87.18764 | 2460 ft | 165 kts | 221° |
| 2026-05-05 00:00 | 35.76971 | -87.19684 | 2463 ft | 164 kts | 221° |
| 2026-05-05 00:00 | 35.76399 | -87.20295 | 2462 ft | 164 kts | 221° |
| 2026-05-05 00:00 | 35.75243 | -87.21523 | 2464 ft | 165 kts | 221° |
| 2026-05-05 00:00 | 35.74386 | -87.22431 | 2461 ft | 164 kts | 221° |
| 2026-05-05 00:01 | 35.73519 | -87.23347 | 2461 ft | 164 kts | 221° |
| 2026-05-05 00:01 | 35.72652 | -87.24264 | 2464 ft | 164 kts | 221° |
| 2026-05-05 00:01 | 35.71785 | -87.25184 | 2463 ft | 165 kts | 221° |
| 2026-05-05 00:01 | 35.70906 | -87.26113 | 2464 ft | 167 kts | 221° |
| 2026-05-05 00:02 | 35.70032 | -87.27037 | 2464 ft | 165 kts | 221° |
| 2026-05-05 00:02 | 35.69157 | -87.27971 | 2469 ft | 167 kts | 222° |
| 2026-05-05 00:02 | 35.68282 | -87.28900 | 2481 ft | 166 kts | 221° |
| 2026-05-05 00:02 | 35.67408 | -87.29825 | 2463 ft | 165 kts | 221° |
| 2026-05-05 00:03 | 35.66547 | -87.30736 | 2536 ft | 162 kts | 221° |
| 2026-05-05 00:03 | 35.65715 | -87.31617 | 2737 ft | 154 kts | 221° |
| 2026-05-05 00:03 | 35.64908 | -87.32467 | 2956 ft | 151 kts | 221° |
| 2026-05-05 00:03 | 35.64112 | -87.33308 | 3176 ft | 150 kts | 221° |
| 2026-05-05 00:04 | 35.63310 | -87.34155 | 3400 ft | 153 kts | 221° |
| 2026-05-05 00:04 | 35.62518 | -87.34990 | 3604 ft | 152 kts | 221° |
| 2026-05-05 00:04 | 35.61713 | -87.35841 | 3784 ft | 153 kts | 221° |
| 2026-05-05 00:04 | 35.60902 | -87.36696 | 3955 ft | 154 kts | 221° |
| 2026-05-05 00:05 | 35.60092 | -87.37551 | 4134 ft | 154 kts | 220° |
| 2026-05-05 00:05 | 35.59279 | -87.38409 | 4304 ft | 154 kts | 221° |
| 2026-05-05 00:05 | 35.58468 | -87.39269 | 4479 ft | 154 kts | 221° |
| 2026-05-05 00:05 | 35.57656 | -87.40129 | 4653 ft | 154 kts | 221° |
| 2026-05-05 00:06 | 35.56844 | -87.40989 | 4828 ft | 154 kts | 221° |
| 2026-05-05 00:06 | 35.56030 | -87.41853 | 5003 ft | 155 kts | 221° |
| 2026-05-05 00:06 | 35.55214 | -87.42716 | 5182 ft | 155 kts | 221° |
| 2026-05-05 00:06 | 35.54398 | -87.43580 | 5353 ft | 154 kts | 221° |
| 2026-05-05 00:07 | 35.53582 | -87.44443 | 5527 ft | 155 kts | 221° |
| 2026-05-05 00:07 | 35.52763 | -87.45309 | 5702 ft | 155 kts | 221° |
| 2026-05-05 00:07 | 35.51950 | -87.46170 | 5882 ft | 154 kts | 221° |
| 2026-05-05 00:07 | 35.51139 | -87.47031 | 6054 ft | 154 kts | 221° |
| 2026-05-05 00:08 | 35.50336 | -87.47884 | 6227 ft | 154 kts | 220° |
| 2026-05-05 00:08 | 35.49511 | -87.48749 | 6405 ft | 155 kts | 221° |
| 2026-05-05 00:08 | 35.48703 | -87.49608 | 6572 ft | 155 kts | 220° |
| 2026-05-05 00:08 | 35.47879 | -87.50479 | 6746 ft | 156 kts | 221° |
| 2026-05-05 00:09 | 35.47059 | -87.51347 | 6922 ft | 155 kts | 221° |
| 2026-05-05 00:09 | 35.46242 | -87.52209 | 7094 ft | 154 kts | 221° |
| 2026-05-05 00:09 | 35.45518 | -87.52978 | 7249 ft | 154 kts | 221° |
| 2026-05-05 00:09 | 35.44707 | -87.53838 | 7419 ft | 154 kts | 221° |
| 2026-05-05 00:10 | 35.43898 | -87.54699 | 7598 ft | 154 kts | 221° |
| 2026-05-05 00:10 | 35.43080 | -87.55565 | 7695 ft | 159 kts | 221° |
| 2026-05-05 00:10 | 35.42234 | -87.56464 | 7695 ft | 158 kts | 221° |
| 2026-05-05 00:10 | 35.41425 | -87.57323 | 7687 ft | 151 kts | 221° |
| 2026-05-05 00:11 | 35.40646 | -87.58148 | 7690 ft | 145 kts | 221° |
| 2026-05-05 00:11 | 35.39890 | -87.58947 | 7692 ft | 142 kts | 221° |
| 2026-05-05 00:11 | 35.39147 | -87.59731 | 7687 ft | 138 kts | 221° |
| 2026-05-05 00:11 | 35.38450 | -87.60462 | 7335 ft | 129 kts | 221° |
| 2026-05-05 00:12 | 35.37769 | -87.61213 | 6689 ft | 136 kts | 222° |
| 2026-05-05 00:12 | 35.37080 | -87.62055 | 6087 ft | 140 kts | 234° |
| 2026-05-05 00:12 | 35.36813 | -87.63118 | 5731 ft | 120 kts | 278° |
| 2026-05-05 00:12 | 35.37181 | -87.63940 | 5244 ft | 109 kts | 319° |
| 2026-05-05 00:13 | 35.37872 | -87.64226 | 4724 ft | 107 kts | 353° |
| 2026-05-05 00:13 | 35.38627 | -87.64313 | 4321 ft | 120 kts | 353° |
| 2026-05-05 00:13 | 35.39517 | -87.64414 | 4001 ft | 136 kts | 356° |
| 2026-05-05 00:13 | 35.40482 | -87.64454 | 3733 ft | 140 kts | 358° |
| 2026-05-05 00:14 | 35.41468 | -87.64457 | 3456 ft | 146 kts | 0° |
| 2026-05-05 00:14 | 35.42476 | -87.64443 | 3314 ft | 141 kts | 359° |
| 2026-05-05 00:14 | 35.43445 | -87.64398 | 3185 ft | 137 kts | 7° |
| 2026-05-05 00:14 | 35.44353 | -87.64098 | 3008 ft | 136 kts | 18° |
| 2026-05-05 00:15 | 35.45245 | -87.63690 | 2796 ft | 138 kts | 20° |
| 2026-05-05 00:15 | 35.46159 | -87.63283 | 2560 ft | 140 kts | 19° |
| 2026-05-05 00:15 | 35.47063 | -87.62887 | 2419 ft | 137 kts | 22° |
| 2026-05-05 00:15 | 35.47931 | -87.62444 | 2275 ft | 133 kts | 24° |
| 2026-05-05 00:16 | 35.48793 | -87.62045 | 2105 ft | 131 kts | 18° |
| 2026-05-05 00:16 | 35.49646 | -87.61701 | 1924 ft | 128 kts | 18° |
| 2026-05-05 00:16 | 35.50439 | -87.61384 | 1720 ft | 113 kts | 18° |
| 2026-05-05 00:16 | 35.51176 | -87.61097 | 1555 ft | 113 kts | 18° |
| 2026-05-05 00:17 | 35.51949 | -87.60789 | 1442 ft | 121 kts | 18° |
| 2026-05-05 00:17 | 35.52680 | -87.60493 | 1291 ft | 99 kts | 19° |
| 2026-05-05 00:17 | 35.53283 | -87.60251 | 1132 ft | 86 kts | 17° |
| 2026-05-05 00:17 | 35.53829 | -87.60034 | 1026 ft | 81 kts | 18° |
| 2026-05-05 00:18 | 35.54336 | -87.59839 | 955 ft | 66 kts | 18° |
| 2026-05-05 00:18 | 35.54488 | -87.59779 | 961 ft | 17 kts | 17° |
| 2026-05-05 00:18 | 35.54730 | -87.59687 | 970 ft | 49 kts | 18° |
| 2026-05-05 00:18 | 35.55007 | -87.59575 | 984 ft | 21 kts | 17° |
| 2026-05-05 00:19 | 35.55054 | -87.59631 | 982 ft | 10 kts | 210° |
| 2026-05-05 00:19 | 35.55023 | -87.59639 | 984 ft | 0 kts | 101° |